Time;durP1;ratioP1;P1;durP2;ratioP2;P2;SDS_P1;SDS_P2;PMS_P1;PMS_P2;Temp;Humidity;BMP_temperature;BMP_pressure;BME280_temperature;BME280_humidity;BME280_pressure;Samples;Min_cycle;Max_cycle;Signal;HPM_P1;HPM_P2
2022/01/08 00:01:09;;;;;;;7.47;2.05;;;1.10;99.90;;;;;;5072443;28;20443;-69
2022/01/08 00:03:36;;;;;;;3.17;1.77;;;1.10;99.90;;;;;;5072021;28;20054;-69
2022/01/08 00:06:04;;;;;;;5.40;1.90;;;1.10;99.90;;;;;;5088918;28;20079;-69
2022/01/08 00:08:31;;;;;;;4.53;1.83;;;1.10;99.90;;;;;;5089310;28;20059;-70
2022/01/08 00:10:59;;;;;;;6.50;1.90;;;1.00;99.90;;;;;;5071833;28;20098;-69
2022/01/08 00:13:26;;;;;;;4.10;2.00;;;1.00;99.90;;;;;;5072572;28;20055;-69
2022/01/08 00:15:53;;;;;;;4.32;1.63;;;0.90;99.90;;;;;;5088679;28;20118;-69
2022/01/08 00:18:20;;;;;;;5.97;1.80;;;0.90;99.90;;;;;;5072170;28;20048;-69
2022/01/08 00:20:47;;;;;;;5.10;1.85;;;0.90;99.90;;;;;;5072108;28;20068;-70
2022/01/08 00:23:14;;;;;;;3.08;1.58;;;0.90;99.90;;;;;;5071505;28;20056;-69
2022/01/08 00:25:40;;;;;;;6.60;2.00;;;0.90;99.90;;;;;;5072186;28;20052;-69
2022/01/08 00:28:09;;;;;;;5.93;1.80;;;0.90;99.90;;;;;;5071972;28;20581;-68
2022/01/08 00:30:36;;;;;;;6.85;2.08;;;0.90;99.90;;;;;;5071563;28;20500;-69
2022/01/08 00:33:03;;;;;;;6.57;1.90;;;0.80;99.90;;;;;;5072357;28;20056;-69
2022/01/08 00:35:31;;;;;;;5.00;2.10;;;0.80;99.90;;;;;;5072180;28;20076;-70
2022/01/08 00:37:58;;;;;;;8.25;3.30;;;0.80;99.90;;;;;;5071549;28;20052;-70
2022/01/08 00:40:26;;;;;;;8.10;2.28;;;0.70;99.90;;;;;;5072281;28;20420;-70
2022/01/08 00:42:52;;;;;;;7.60;1.90;;;0.70;99.90;;;;;;5072209;28;20052;-69
2022/01/08 00:45:21;;;;;;;3.75;1.85;;;0.70;99.90;;;;;;5071227;28;20505;-69
2022/01/08 00:47:48;;;;;;;5.82;2.20;;;0.70;99.90;;;;;;5072214;28;20094;-68
2022/01/08 00:50:15;;;;;;;4.57;1.92;;;0.70;99.90;;;;;;5072330;28;20056;-69
2022/01/08 00:52:42;;;;;;;4.80;1.85;;;0.70;99.90;;;;;;5071001;28;20466;-68
2022/01/08 00:55:11;;;;;;;9.18;2.05;;;0.70;99.90;;;;;;5088419;28;20080;-68
2022/01/08 00:57:38;;;;;;;4.20;2.17;;;0.70;99.90;;;;;;5071428;28;20088;-69
2022/01/08 01:00:08;;;;;;;5.00;2.42;;;0.70;99.90;;;;;;5070976;28;20106;-68
2022/01/08 01:02:37;;;;;;;5.20;2.10;;;0.60;99.90;;;;;;5054897;28;20177;-69
2022/01/08 01:05:04;;;;;;;5.25;2.58;;;0.60;99.90;;;;;;5088179;28;20084;-70
2022/01/08 01:07:31;;;;;;;5.68;2.60;;;0.70;99.90;;;;;;5071655;28;20053;-69
2022/01/08 01:09:58;;;;;;;7.78;2.72;;;0.80;99.90;;;;;;5072034;28;20125;-68
2022/01/08 01:12:25;;;;;;;6.25;2.72;;;0.80;99.90;;;;;;5088137;28;20464;-68
2022/01/08 01:14:52;;;;;;;5.63;2.17;;;0.80;99.90;;;;;;5071594;28;20500;-68
2022/01/08 01:17:19;;;;;;;6.55;2.70;;;0.90;99.90;;;;;;5071875;28;20149;-68
2022/01/08 01:19:48;;;;;;;5.38;2.80;;;0.90;99.90;;;;;;5071127;28;20095;-68
2022/01/08 01:22:18;;;;;;;5.70;2.58;;;0.90;99.90;;;;;;5078615;28;20041;-69
2022/01/08 01:24:46;;;;;;;10.32;3.25;;;0.90;99.90;;;;;;5051487;28;20049;-70
2022/01/08 01:30:01;;;;;;;6.00;3.00;;;1.00;99.90;;;;;;5041263;28;20049;-70
2022/01/08 01:47:00;;;;;;;4.85;2.60;;;1.10;99.90;;;;;;5071999;28;20048;-69
2022/01/08 01:49:08;;;;;;;7.38;2.85;;;1.00;99.90;;;;;;5071269;28;20049;-69
2022/01/08 01:51:36;;;;;;;7.10;2.45;;;1.00;99.90;;;;;;5061631;28;20096;-69
2022/01/08 01:54:03;;;;;;;6.70;3.17;;;1.00;99.90;;;;;;5074550;28;20135;-69
2022/01/08 01:56:30;;;;;;;6.43;2.67;;;1.00;99.90;;;;;;5091403;28;20135;-69
2022/01/08 01:58:57;;;;;;;7.28;2.95;;;1.00;99.90;;;;;;5074743;28;20099;-69
2022/01/08 02:01:24;;;;;;;7.43;2.95;;;0.90;99.90;;;;;;5090608;28;20500;-69
2022/01/08 02:03:50;;;;;;;6.20;2.90;;;0.90;99.90;;;;;;5091680;28;20496;-69
2022/01/08 02:06:17;;;;;;;5.68;2.40;;;0.90;99.90;;;;;;5074686;28;20089;-69
2022/01/08 02:08:46;;;;;;;9.07;3.83;;;0.90;99.90;;;;;;5091080;28;20117;-69
2022/01/08 02:11:13;;;;;;;6.15;2.58;;;0.90;99.90;;;;;;5091771;28;20058;-69
2022/01/08 02:13:39;;;;;;;9.05;3.17;;;0.90;99.90;;;;;;5091542;28;20102;-69
2022/01/08 02:16:16;;;;;;;6.50;3.35;;;0.90;99.90;;;;;;5074001;28;20144;-69
2022/01/08 02:18:44;;;;;;;6.65;3.10;;;0.90;99.90;;;;;;5091684;28;20067;-68
2022/01/08 02:21:13;;;;;;;6.13;2.70;;;0.90;99.90;;;;;;5074080;28;20566;-69
2022/01/08 02:23:40;;;;;;;5.78;2.70;;;0.90;99.90;;;;;;5073720;28;20063;-69
2022/01/08 02:26:08;;;;;;;6.13;2.65;;;0.90;99.90;;;;;;5074391;28;20488;-69
2022/01/08 02:28:35;;;;;;;6.93;2.83;;;0.80;99.90;;;;;;5074429;28;20068;-69
2022/01/08 02:31:03;;;;;;;8.07;2.78;;;0.80;99.90;;;;;;5073862;28;20091;-70
2022/01/08 02:33:30;;;;;;;4.88;2.47;;;0.70;99.90;;;;;;5074160;28;20133;-68
2022/01/08 02:35:59;;;;;;;6.05;2.25;;;0.70;99.90;;;;;;5073929;28;20470;-68
2022/01/08 02:38:27;;;;;;;6.50;2.40;;;0.70;99.90;;;;;;5073539;28;20094;-68
2022/01/08 02:40:57;;;;;;;6.32;2.60;;;0.60;99.90;;;;;;5074032;28;20133;-69
2022/01/08 02:43:24;;;;;;;6.10;2.70;;;0.60;99.90;;;;;;5074039;28;20055;-68
2022/01/08 02:45:51;;;;;;;5.88;2.58;;;0.60;99.90;;;;;;5073928;28;20804;-69
2022/01/08 02:48:18;;;;;;;5.28;2.45;;;0.60;99.90;;;;;;5073963;28;20110;-68
2022/01/08 02:50:45;;;;;;;8.38;2.10;;;0.60;99.90;;;;;;5073135;28;20472;-69
2022/01/08 02:53:12;;;;;;;6.85;2.30;;;0.70;99.90;;;;;;5073880;28;20114;-69
2022/01/08 02:55:40;;;;;;;3.25;1.90;;;0.70;99.90;;;;;;5074066;28;20052;-69
2022/01/08 02:58:07;;;;;;;5.28;1.90;;;0.70;99.90;;;;;;5073012;28;20450;-70
2022/01/08 03:00:34;;;;;;;8.02;2.35;;;0.70;99.90;;;;;;5073444;28;20076;-70
2022/01/08 03:03:01;;;;;;;5.05;2.60;;;0.60;99.90;;;;;;5073626;28;20045;-70
2022/01/08 03:05:28;;;;;;;6.95;2.10;;;0.60;99.90;;;;;;5073115;28;20087;-70
2022/01/08 03:07:55;;;;;;;7.13;1.92;;;0.50;99.90;;;;;;5073892;28;20067;-70
2022/01/08 03:10:22;;;;;;;3.45;2.10;;;0.50;99.90;;;;;;5074091;28;20048;-70
2022/01/08 03:12:50;;;;;;;5.22;1.60;;;0.40;99.90;;;;;;5073262;28;20446;-69
2022/01/08 03:15:19;;;;;;;6.30;2.28;;;0.40;99.90;;;;;;5073339;28;20080;-69
2022/01/08 03:17:46;;;;;;;4.72;1.60;;;0.30;99.90;;;;;;5073404;28;20134;-69
2022/01/08 03:20:15;;;;;;;5.97;1.70;;;0.30;99.90;;;;;;5072908;28;20094;-69
2022/01/08 03:22:44;;;;;;;4.05;1.80;;;0.30;99.90;;;;;;5072946;28;20106;-69
2022/01/08 03:25:12;;;;;;;5.82;2.00;;;0.30;99.90;;;;;;5074222;28;20492;-69
2022/01/08 03:27:41;;;;;;;5.32;1.67;;;0.30;99.90;;;;;;5072687;28;20097;-69
2022/01/08 03:30:12;;;;;;;3.58;1.73;;;0.20;99.90;;;;;;5090082;28;20067;-68
2022/01/08 03:32:39;;;;;;;7.78;2.13;;;0.20;99.90;;;;;;5072776;28;20503;-69
2022/01/08 03:35:06;;;;;;;3.78;1.85;;;0.20;99.90;;;;;;5073009;28;20049;-69
2022/01/08 03:37:33;;;;;;;3.30;1.48;;;0.20;99.90;;;;;;5073473;28;20056;-69
2022/01/08 03:40:00;;;;;;;3.88;1.80;;;0.20;99.90;;;;;;5072419;28;20450;-69
2022/01/08 03:42:27;;;;;;;6.68;1.90;;;0.20;99.90;;;;;;5072976;28;20053;-69
2022/01/08 03:44:54;;;;;;;5.35;1.67;;;0.10;99.90;;;;;;5073055;28;20110;-69
2022/01/08 03:47:29;;;;;;;4.03;1.63;;;0.10;99.90;;;;;;5089244;28;20048;-69
2022/01/08 03:49:56;;;;;;;3.70;1.90;;;0.10;99.90;;;;;;5073080;28;20059;-68
2022/01/08 03:52:26;;;;;;;4.63;1.60;;;0.10;99.90;;;;;;5071921;28;20436;-69
2022/01/08 03:54:53;;;;;;;4.20;1.50;;;0.10;99.90;;;;;;5071824;28;20048;-69
2022/01/08 03:57:20;;;;;;;4.07;1.95;;;0.10;99.90;;;;;;5072581;28;20137;-68
2022/01/08 03:59:48;;;;;;;6.85;1.50;;;0.00;99.90;;;;;;5072461;28;20106;-69
2022/01/08 04:02:15;;;;;;;3.70;1.40;;;0.10;99.90;;;;;;5071976;28;20083;-70
2022/01/08 04:04:44;;;;;;;3.95;1.70;;;0.10;99.90;;;;;;5073271;28;20080;-70
2022/01/08 04:07:10;;;;;;;3.83;1.60;;;0.10;99.90;;;;;;5072669;28;20094;-70
2022/01/08 04:09:37;;;;;;;4.95;1.58;;;0.10;99.90;;;;;;5071949;28;20080;-70
2022/01/08 04:12:06;;;;;;;3.83;1.73;;;0.20;99.90;;;;;;5072229;28;20101;-70
2022/01/08 04:14:47;;;;;;;2.92;1.52;;;0.20;99.90;;;;;;5072499;28;20458;-70
2022/01/08 04:17:16;;;;;;;5.93;1.35;;;0.20;99.90;;;;;;5072151;28;20396;-70
2022/01/08 04:19:44;;;;;;;4.30;1.35;;;0.20;99.90;;;;;;5072391;28;20139;-70
2022/01/08 04:22:12;;;;;;;8.07;1.98;;;0.20;99.90;;;;;;5071428;28;20053;-69
2022/01/08 04:24:39;;;;;;;3.40;1.40;;;0.30;99.90;;;;;;5072157;28;20098;-69
2022/01/08 04:27:07;;;;;;;5.68;2.85;;;0.30;99.90;;;;;;5089244;28;20052;-68
2022/01/08 04:29:34;;;;;;;5.13;1.70;;;0.30;99.90;;;;;;5088466;28;20088;-69
2022/01/08 04:32:00;;;;;;;8.02;2.00;;;0.40;99.90;;;;;;5088918;28;20522;-68
2022/01/08 04:34:27;;;;;;;6.00;1.45;;;0.40;99.90;;;;;;5072953;28;20084;-68
2022/01/08 04:36:55;;;;;;;5.15;1.63;;;0.40;99.90;;;;;;5071365;28;20324;-68
2022/01/08 04:39:22;;;;;;;2.72;1.55;;;0.50;99.90;;;;;;5072024;28;20117;-69
2022/01/08 04:41:49;;;;;;;6.45;1.95;;;0.50;99.90;;;;;;5071916;28;20052;-69
2022/01/08 04:44:16;;;;;;;7.40;2.10;;;0.50;99.90;;;;;;5088187;28;20052;-69
2022/01/08 04:46:43;;;;;;;9.70;2.38;;;0.60;99.90;;;;;;5072148;28;20052;-69
2022/01/08 04:49:10;;;;;;;10.18;1.95;;;0.60;99.90;;;;;;5071627;28;20076;-69
2022/01/08 04:51:38;;;;;;;5.85;2.03;;;0.70;99.90;;;;;;5075809;28;20126;-69
2022/01/08 04:54:06;;;;;;;5.50;2.15;;;0.70;99.90;;;;;;5052690;28;20408;-68
2022/01/08 04:56:33;;;;;;;3.30;1.80;;;0.70;99.90;;;;;;5070288;28;20090;-68
2022/01/08 04:59:00;;;;;;;7.10;2.15;;;0.70;99.90;;;;;;5071042;28;20114;-67
2022/01/08 05:01:26;;;;;;;11.25;1.98;;;0.70;99.90;;;;;;5072009;28;20492;-69
2022/01/08 05:03:53;;;;;;;5.45;2.03;;;0.70;99.90;;;;;;5075770;28;20048;-68
2022/01/08 05:06:20;;;;;;;5.22;2.22;;;0.80;99.90;;;;;;5078943;28;20049;-68
2022/01/08 05:08:47;;;;;;;3.67;2.08;;;0.80;99.90;;;;;;5078750;28;20480;-68
2022/01/08 05:11:15;;;;;;;6.88;2.00;;;0.80;99.90;;;;;;5078151;28;20526;-71
2022/01/08 05:13:44;;;;;;;6.35;1.85;;;0.70;99.90;;;;;;5078244;28;20554;-68
2022/01/08 05:16:11;;;;;;;5.10;2.00;;;0.70;99.90;;;;;;5078398;28;20463;-69
2022/01/08 05:18:38;;;;;;;7.78;2.22;;;0.70;99.90;;;;;;5077934;28;20048;-68
2022/01/08 05:21:18;;;;;;;11.23;2.08;;;0.70;99.90;;;;;;5078064;28;20388;-69
2022/01/08 05:23:45;;;;;;;4.97;1.90;;;0.70;99.90;;;;;;5078073;28;20052;-69
2022/01/08 05:26:12;;;;;;;4.63;1.70;;;0.70;99.90;;;;;;5094130;28;20048;-69
2022/01/08 05:28:40;;;;;;;5.20;1.95;;;0.70;99.90;;;;;;5078620;28;20078;-68
2022/01/08 05:31:08;;;;;;;3.05;2.05;;;0.80;99.90;;;;;;5095275;28;20048;-69
2022/01/08 05:33:34;;;;;;;5.50;1.80;;;0.80;99.90;;;;;;5077376;28;20048;-69
2022/01/08 05:36:01;;;;;;;6.20;1.90;;;0.80;99.90;;;;;;5078134;28;20113;-69
2022/01/08 05:38:28;;;;;;;4.00;1.48;;;0.90;99.90;;;;;;5077926;28;20562;-69
2022/01/08 05:40:55;;;;;;;6.72;3.45;;;0.80;99.90;;;;;;5077197;28;20131;-69
2022/01/08 05:43:22;;;;;;;7.45;1.90;;;0.80;99.90;;;;;;5078187;28;20079;-69
2022/01/08 05:45:50;;;;;;;7.22;2.13;;;0.80;99.90;;;;;;5077723;28;20135;-69
2022/01/08 05:48:17;;;;;;;5.07;2.10;;;0.70;99.90;;;;;;5077760;28;20091;-70
2022/01/08 05:50:44;;;;;;;12.63;2.10;;;0.70;99.90;;;;;;5077772;28;20128;-69
2022/01/08 05:53:10;;;;;;;7.30;2.00;;;0.70;99.90;;;;;;5078097;28;20086;-69
2022/01/08 05:55:37;;;;;;;5.20;2.15;;;0.60;99.90;;;;;;5077361;28;20113;-69
2022/01/08 05:58:04;;;;;;;5.25;2.10;;;0.60;99.90;;;;;;5078031;28;20091;-71
2022/01/08 06:00:31;;;;;;;5.93;2.00;;;0.50;99.90;;;;;;5077075;28;20048;-69
2022/01/08 06:02:59;;;;;;;10.52;1.70;;;0.50;99.90;;;;;;5078077;28;20447;-70
2022/01/08 06:05:26;;;;;;;5.38;1.80;;;0.50;99.90;;;;;;5077913;28;20083;-69
2022/01/08 06:07:53;;;;;;;4.43;1.90;;;0.40;99.90;;;;;;5077193;28;20504;-69
2022/01/08 06:10:20;;;;;;;5.28;1.83;;;0.40;99.90;;;;;;5077869;28;20056;-69
2022/01/08 06:12:46;;;;;;;5.80;2.10;;;0.30;99.90;;;;;;5077784;28;20493;-70
2022/01/08 06:15:14;;;;;;;3.97;2.08;;;0.40;99.90;;;;;;5076037;28;20048;-69
2022/01/08 06:17:41;;;;;;;6.00;2.60;;;0.30;99.90;;;;;;5074901;28;20508;-70
2022/01/08 06:20:10;;;;;;;4.97;2.38;;;0.30;99.90;;;;;;5074227;28;20053;-69
2022/01/08 06:22:37;;;;;;;5.63;2.90;;;0.30;99.90;;;;;;5074016;28;20408;-70
2022/01/08 06:25:05;;;;;;;5.20;2.72;;;0.20;99.90;;;;;;5074594;28;20088;-69
2022/01/08 06:27:31;;;;;;;8.75;3.13;;;0.20;99.90;;;;;;5074620;28;20126;-69
2022/01/08 06:29:59;;;;;;;12.20;3.03;;;0.20;99.90;;;;;;5090731;28;20469;-69
2022/01/08 06:32:26;;;;;;;4.50;2.72;;;0.20;99.90;;;;;;5074562;28;20595;-69
2022/01/08 06:34:52;;;;;;;6.38;2.78;;;0.10;99.90;;;;;;5091295;28;20156;-69
2022/01/08 06:37:20;;;;;;;10.77;3.45;;;0.10;99.90;;;;;;5073575;28;20052;-68
2022/01/08 06:39:49;;;;;;;14.73;3.95;;;0.10;99.90;;;;;;5074192;28;20491;-68
2022/01/08 06:42:15;;;;;;;9.75;3.35;;;0.10;99.90;;;;;;5074172;28;20067;-69
2022/01/08 06:44:42;;;;;;;11.38;3.78;;;0.10;99.90;;;;;;5073334;28;20048;-69
2022/01/08 06:47:09;;;;;;;9.80;3.75;;;0.10;99.90;;;;;;5091023;28;20487;-69
2022/01/08 06:49:36;;;;;;;8.20;3.78;;;0.10;99.90;;;;;;5090114;28;20079;-68
2022/01/08 06:52:03;;;;;;;11.10;3.72;;;0.10;99.90;;;;;;5073909;28;20136;-69
2022/01/08 06:54:31;;;;;;;7.50;4.20;;;0.10;99.90;;;;;;5073876;28;20052;-69
2022/01/08 06:56:58;;;;;;;11.13;4.30;;;0.10;99.90;;;;;;5069632;28;20474;-69
2022/01/08 06:59:26;;;;;;;8.40;4.28;;;0.10;99.90;;;;;;5057549;28;20424;-69
2022/01/08 07:01:53;;;;;;;14.32;5.18;;;0.10;99.90;;;;;;5065735;28;20411;-69
2022/01/08 07:04:20;;;;;;;10.73;4.28;;;0.10;99.90;;;;;;5070351;28;20072;-69
2022/01/08 07:06:47;;;;;;;8.93;4.55;;;0.00;99.90;;;;;;5073482;28;20045;-69
2022/01/08 07:09:14;;;;;;;14.23;5.20;;;0.00;99.90;;;;;;5054571;28;20084;-69
2022/01/08 07:11:42;;;;;;;13.52;5.07;;;-0.10;99.90;;;;;;5064484;28;20048;-69
2022/01/08 07:14:08;;;;;;;14.80;5.82;;;-0.10;99.90;;;;;;5070758;28;20045;-69
2022/01/08 07:16:35;;;;;;;7.82;4.38;;;0.00;99.90;;;;;;5066717;28;20052;-68
2022/01/08 07:19:02;;;;;;;8.50;4.70;;;0.00;99.90;;;;;;5064766;28;20135;-68
2022/01/08 07:21:29;;;;;;;12.80;5.38;;;0.00;99.90;;;;;;5066616;28;20496;-68
2022/01/08 07:23:56;;;;;;;10.70;5.28;;;0.00;99.90;;;;;;5063927;28;20045;-69
2022/01/08 07:26:22;;;;;;;10.82;5.15;;;0.00;99.90;;;;;;5067416;28;20074;-69
2022/01/08 07:28:51;;;;;;;14.68;5.63;;;0.10;99.90;;;;;;5063762;28;20080;-69
2022/01/08 07:31:17;;;;;;;15.15;5.28;;;0.10;99.90;;;;;;5065757;28;20048;-69
2022/01/08 07:33:49;;;;;;;16.08;5.55;;;0.00;99.90;;;;;;5063349;28;20121;-69
2022/01/08 07:36:16;;;;;;;12.77;5.13;;;0.10;99.90;;;;;;5062799;28;20055;-69
2022/01/08 07:38:43;;;;;;;13.90;5.82;;;0.10;99.90;;;;;;5065059;28;20076;-70
2022/01/08 07:41:10;;;;;;;11.55;5.70;;;0.10;99.90;;;;;;5067397;28;20534;-69
2022/01/08 07:43:36;;;;;;;9.63;4.78;;;0.10;99.90;;;;;;5063795;28;20095;-69
2022/01/08 07:46:05;;;;;;;8.95;5.00;;;0.20;99.90;;;;;;5060508;28;20094;-69
2022/01/08 07:48:31;;;;;;;11.68;5.05;;;0.20;99.90;;;;;;5057453;28;20091;-69
2022/01/08 07:50:59;;;;;;;9.25;4.57;;;0.20;99.90;;;;;;5063942;28;20080;-70
2022/01/08 07:53:26;;;;;;;10.82;5.45;;;0.20;99.90;;;;;;5063079;28;20040;-70
2022/01/08 07:55:53;;;;;;;10.85;4.32;;;0.20;99.90;;;;;;5065772;28;20143;-69
2022/01/08 07:58:21;;;;;;;13.73;4.65;;;0.20;99.90;;;;;;5063836;28;21004;-70
2022/01/08 08:00:48;;;;;;;10.88;4.28;;;0.20;99.90;;;;;;5063469;28;20083;-70
2022/01/08 08:03:16;;;;;;;12.30;4.85;;;0.30;99.90;;;;;;5068884;28;20049;-70
2022/01/08 08:05:44;;;;;;;12.68;4.38;;;0.30;99.90;;;;;;5065018;28;20124;-69
2022/01/08 08:08:14;;;;;;;9.70;4.55;;;0.40;99.90;;;;;;5065178;28;20107;-70
2022/01/08 08:10:41;;;;;;;8.32;4.00;;;0.50;99.90;;;;;;5067870;28;20136;-69
2022/01/08 08:13:08;;;;;;;11.98;3.92;;;0.50;99.90;;;;;;5065724;28;20123;-69
2022/01/08 08:15:34;;;;;;;13.75;4.68;;;0.50;99.90;;;;;;5061559;28;20170;-67
2022/01/08 08:18:01;;;;;;;13.65;3.92;;;0.60;99.90;;;;;;5079143;28;20095;-68
2022/01/08 08:20:30;;;;;;;11.50;4.20;;;0.70;99.90;;;;;;5061471;28;20118;-70
2022/01/08 08:22:57;;;;;;;11.05;4.50;;;1.20;99.90;;;;;;5061338;28;20383;-70
2022/01/08 08:25:24;;;;;;;8.20;3.65;;;1.80;99.90;;;;;;5061154;28;20056;-70
2022/01/08 08:27:51;;;;;;;9.18;3.38;;;2.60;99.90;;;;;;5050183;28;20064;-70
2022/01/08 08:30:18;;;;;;;7.30;3.10;;;3.10;99.90;;;;;;5052995;28;20509;-70
2022/01/08 08:32:45;;;;;;;16.35;3.85;;;3.90;99.90;;;;;;5060415;28;20098;-68
2022/01/08 08:35:12;;;;;;;8.73;3.58;;;4.40;99.90;;;;;;5054688;28;20114;-68
2022/01/08 08:37:40;;;;;;;8.25;3.22;;;4.90;99.90;;;;;;5052649;28;20076;-69
2022/01/08 08:40:09;;;;;;;9.10;2.83;;;5.60;99.90;;;;;;5060877;28;20084;-69
2022/01/08 08:42:37;;;;;;;13.82;2.90;;;6.10;99.90;;;;;;5059792;28;20056;-69
2022/01/08 08:45:05;;;;;;;6.90;2.42;;;6.60;99.90;;;;;;5069544;28;20564;-69
2022/01/08 08:47:32;;;;;;;6.15;2.83;;;7.00;99.90;;;;;;5060685;28;20569;-68
2022/01/08 08:49:59;;;;;;;8.50;2.67;;;7.00;99.90;;;;;;5057800;28;20049;-70
2022/01/08 08:52:26;;;;;;;6.70;3.28;;;6.70;99.90;;;;;;5058226;28;20083;-69
2022/01/08 08:54:54;;;;;;;6.80;2.10;;;6.40;99.90;;;;;;5058339;28;20056;-70
2022/01/08 08:57:21;;;;;;;12.25;3.00;;;6.30;99.90;;;;;;5057863;28;20408;-70
2022/01/08 08:59:51;;;;;;;8.68;2.53;;;5.90;99.90;;;;;;5064895;28;20049;-70
2022/01/08 09:02:18;;;;;;;5.07;2.83;;;5.50;99.90;;;;;;5061522;28;20492;-69
2022/01/08 09:04:45;;;;;;;10.18;3.70;;;5.30;99.90;;;;;;5055052;28;20299;-71
2022/01/08 09:07:12;;;;;;;7.93;2.65;;;5.10;99.90;;;;;;5074179;28;20081;-70
2022/01/08 09:09:39;;;;;;;15.00;2.70;;;5.60;99.90;;;;;;5054190;28;20196;-69
2022/01/08 09:12:09;;;;;;;7.85;3.45;;;6.10;99.90;;;;;;5048191;28;20166;-70
2022/01/08 09:14:36;;;;;;;;;;;6.60;99.90;;;;;;5054223;28;20493;-69
2022/01/08 09:17:06;;;;;;;6.35;2.75;;;6.70;99.90;;;;;;5053590;28;19986;-70
2022/01/08 09:19:34;;;;;;;8.77;2.47;;;6.80;99.90;;;;;;5054420;28;20485;-70
2022/01/08 09:22:02;;;;;;;9.40;2.65;;;6.70;99.90;;;;;;5053546;28;20085;-70
2022/01/08 09:24:29;;;;;;;6.15;2.50;;;7.20;99.90;;;;;;5052980;28;20044;-70
2022/01/08 09:26:56;;;;;;;4.85;2.25;;;7.30;99.90;;;;;;5053401;28;20065;-69
2022/01/08 09:29:24;;;;;;;10.50;2.80;;;7.50;99.90;;;;;;5065950;28;20044;-69
2022/01/08 09:31:51;;;;;;;7.60;3.17;;;7.60;99.90;;;;;;5073597;28;20095;-69
2022/01/08 09:34:19;;;;;;;13.23;3.33;;;7.40;99.90;;;;;;5057475;28;20460;-70
2022/01/08 09:36:47;;;;;;;6.07;2.38;;;7.40;99.90;;;;;;5058128;28;20048;-72
2022/01/08 09:39:15;;;;;;;7.38;3.05;;;6.90;99.90;;;;;;5059283;28;20476;-71
2022/01/08 09:41:42;;;;;;;7.13;2.95;;;6.60;99.90;;;;;;5077045;28;20056;-69
2022/01/08 09:44:08;;;;;;;5.82;2.65;;;6.20;99.90;;;;;;5076636;28;20174;-70
2022/01/08 09:46:37;;;;;;;8.90;2.67;;;5.80;99.90;;;;;;5058150;28;20115;-70
2022/01/08 09:49:04;;;;;;;6.07;2.30;;;5.60;99.90;;;;;;5062966;28;20091;-68
2022/01/08 09:51:31;;;;;;;9.45;3.10;;;5.20;99.90;;;;;;5089995;28;20048;-70
2022/01/08 09:53:58;;;;;;;8.88;2.38;;;5.30;99.90;;;;;;5072247;28;20109;-71
2022/01/08 09:56:26;;;;;;;10.35;3.03;;;6.00;99.90;;;;;;5074724;28;20087;-70
2022/01/08 09:58:53;;;;;;;7.97;2.30;;;6.30;99.90;;;;;;5074688;28;20068;-70
2022/01/08 10:01:26;;;;;;;7.03;2.83;;;6.90;99.90;;;;;;5075313;28;20542;-70
2022/01/08 10:03:55;;;;;;;4.32;1.95;;;7.00;99.90;;;;;;5075221;28;20044;-70
2022/01/08 10:06:23;;;;;;;6.90;2.25;;;7.30;99.90;;;;;;5076247;28;20166;-70
2022/01/08 10:08:51;;;;;;;6.47;2.20;;;7.50;99.90;;;;;;5074239;28;20049;-69
2022/01/08 10:11:19;;;;;;;8.75;2.30;;;7.50;99.90;;;;;;5074690;28;20056;-69
2022/01/08 10:13:51;;;;;;;12.02;4.93;;;7.30;99.90;;;;;;5073777;28;20053;-69
2022/01/08 10:19:17;;;;;;;6.88;2.50;;;6.50;99.90;;;;;;5074575;28;20051;-69
2022/01/08 10:21:45;;;;;;;7.20;2.90;;;6.00;99.90;;;;;;5074067;28;20223;-69
2022/01/08 10:24:12;;;;;;;7.13;2.53;;;5.90;99.90;;;;;;5074781;28;20498;-69
2022/01/08 10:26:40;;;;;;;4.47;2.47;;;5.90;99.90;;;;;;5074513;28;20526;-69
2022/01/08 10:29:12;;;;;;;6.72;2.40;;;5.70;99.90;;;;;;5073990;28;20074;-69
2022/01/08 10:31:40;;;;;;;9.05;2.70;;;5.70;99.90;;;;;;5074401;28;20101;-69
2022/01/08 10:34:10;;;;;;;4.80;2.35;;;5.60;99.90;;;;;;5074523;28;20403;-69
2022/01/08 10:36:39;;;;;;;9.98;2.83;;;5.70;99.90;;;;;;5073955;28;20163;-70
2022/01/08 10:39:08;;;;;;;6.60;2.63;;;5.60;99.90;;;;;;5075389;28;20516;-70
2022/01/08 10:41:40;;;;;;;5.80;2.53;;;5.50;99.90;;;;;;5074439;28;20091;-70
2022/01/08 10:44:13;;;;;;;6.97;2.40;;;5.30;99.90;;;;;;5073589;28;20055;-70
2022/01/08 10:46:44;;;;;;;7.55;2.90;;;5.10;99.90;;;;;;5073983;28;20565;-70
2022/01/08 10:49:16;;;;;;;7.45;2.75;;;5.00;99.90;;;;;;5073589;28;20093;-70
2022/01/08 10:51:43;;;;;;;5.28;2.70;;;4.80;99.90;;;;;;5073931;28;20113;-71
2022/01/08 10:54:11;;;;;;;7.93;2.78;;;4.70;99.90;;;;;;5073296;28;20041;-69
2022/01/08 10:56:41;;;;;;;13.43;3.13;;;4.60;99.90;;;;;;5072600;28;20092;-69
2022/01/08 10:59:14;;;;;;;9.55;2.70;;;4.50;99.90;;;;;;5072968;28;20052;-70
2022/01/08 11:01:50;;;;;;;7.45;3.67;;;4.40;99.90;;;;;;5073307;28;20407;-69
2022/01/08 11:04:30;;;;;;;9.63;3.30;;;4.30;99.90;;;;;;5072691;28;20396;-69
2022/01/08 11:06:58;;;;;;;9.38;3.42;;;4.30;99.90;;;;;;5072570;28;20087;-70
2022/01/08 11:09:27;;;;;;;6.43;3.45;;;4.10;99.90;;;;;;5087755;28;20088;-69
2022/01/08 11:11:56;;;;;;;9.15;3.70;;;4.00;99.90;;;;;;5062429;28;20072;-70
2022/01/08 11:17:16;;;;;;;8.43;3.10;;;4.10;99.90;;;;;;5057565;28;20051;-70
2022/01/08 11:19:47;;;;;;;11.18;3.47;;;4.10;99.90;;;;;;5076475;28;20079;-70
2022/01/08 11:22:16;;;;;;;10.73;3.80;;;4.20;99.90;;;;;;5054773;28;20049;-69
2022/01/08 11:24:51;;;;;;;10.05;4.18;;;4.20;99.90;;;;;;5058249;28;20079;-68
2022/01/08 11:27:22;;;;;;;9.57;3.40;;;4.20;99.90;;;;;;5060910;28;20055;-69
2022/01/08 11:29:56;;;;;;;8.60;4.40;;;4.30;99.90;;;;;;5062105;28;20487;-69
2022/01/08 11:32:25;;;;;;;9.00;3.50;;;4.30;99.90;;;;;;5063792;28;20084;-69
2022/01/08 11:34:55;;;;;;;9.00;3.65;;;4.30;99.90;;;;;;5053989;28;20130;-69
2022/01/08 11:37:24;;;;;;;8.68;3.72;;;4.30;99.90;;;;;;5060117;28;20131;-69
2022/01/08 11:39:52;;;;;;;7.28;4.53;;;4.30;99.90;;;;;;5069565;28;20056;-67
2022/01/08 11:42:21;;;;;;;9.30;4.93;;;4.40;99.90;;;;;;5076459;28;20127;-70
2022/01/08 11:44:51;;;;;;;8.48;3.63;;;4.40;99.90;;;;;;5061751;28;20048;-68
2022/01/08 11:47:22;;;;;;;9.90;4.57;;;4.30;99.90;;;;;;5064322;28;20053;-68
2022/01/08 11:49:50;;;;;;;6.30;4.03;;;4.40;99.90;;;;;;5068407;28;20364;-69
2022/01/08 11:52:21;;;;;;;6.60;4.15;;;4.40;99.90;;;;;;5063259;28;20072;-69
2022/01/08 11:54:50;;;;;;;9.05;4.00;;;4.40;99.90;;;;;;5069432;28;20045;-69
2022/01/08 11:57:19;;;;;;;9.93;4.32;;;4.40;99.90;;;;;;5064306;28;20087;-69
2022/01/08 11:59:46;;;;;;;8.75;4.30;;;4.40;99.90;;;;;;5068691;28;20045;-70
2022/01/08 12:02:14;;;;;;;9.70;4.47;;;4.40;99.90;;;;;;5069926;28;20437;-70
2022/01/08 12:04:44;;;;;;;7.10;4.47;;;4.30;99.90;;;;;;5054519;28;20500;-69
2022/01/08 12:07:37;;;;;;;7.43;4.10;;;4.30;99.90;;;;;;5058173;28;20491;-69
2022/01/08 12:10:18;;;;;;;5.72;3.88;;;4.30;99.90;;;;;;5058650;28;20307;-70
2022/01/08 12:12:48;;;;;;;7.97;4.63;;;4.20;99.90;;;;;;5062810;28;20400;-70
2022/01/08 12:15:16;;;;;;;6.90;4.25;;;4.10;99.90;;;;;;5059935;28;20048;-70
2022/01/08 12:17:56;;;;;;;7.75;4.47;;;4.10;99.90;;;;;;5058507;28;20084;-69
2022/01/08 12:20:40;;;;;;;10.23;5.30;;;4.00;99.90;;;;;;5051799;28;20096;-70
2022/01/08 12:23:37;;;;;;;7.45;4.72;;;4.00;99.90;;;;;;5072532;28;20053;-69
2022/01/08 12:26:09;;;;;;;12.43;5.25;;;4.00;99.90;;;;;;5057572;28;20147;-69
2022/01/08 12:28:56;;;;;;;8.27;5.05;;;4.00;99.90;;;;;;5060680;28;20044;-69
2022/01/08 12:31:40;;;;;;;7.28;4.63;;;4.00;99.90;;;;;;5073130;28;20102;-70
2022/01/08 12:34:20;;;;;;;13.85;5.95;;;4.00;99.90;;;;;;5060215;28;20135;-70
2022/01/08 12:36:55;;;;;;;11.90;5.60;;;4.00;99.90;;;;;;5059841;28;20053;-70
2022/01/08 12:39:55;;;;;;;13.07;5.43;;;4.00;99.90;;;;;;5058971;28;20102;-71
2022/01/08 12:42:38;;;;;;;15.88;6.13;;;4.10;99.90;;;;;;5049315;28;20599;-71
2022/01/08 12:45:10;;;;;;;18.70;6.28;;;4.10;99.90;;;;;;5065747;28;20045;-69
2022/01/08 12:47:42;;;;;;;10.18;6.00;;;4.00;99.90;;;;;;5064187;28;20113;-69
2022/01/08 12:50:30;;;;;;;11.88;6.32;;;4.00;99.90;;;;;;5063482;28;20053;-69
2022/01/08 12:53:28;;;;;;;13.18;7.57;;;3.90;99.90;;;;;;5061724;28;20048;-69
2022/01/08 12:56:12;;;;;;;14.15;7.13;;;3.90;99.90;;;;;;5058586;28;20053;-69
2022/01/08 12:58:47;;;;;;;11.82;7.22;;;3.90;99.90;;;;;;5063167;28;20165;-69
2022/01/08 13:01:16;;;;;;;17.73;7.40;;;3.80;99.90;;;;;;5066711;28;20037;-70
2022/01/08 13:03:44;;;;;;;14.32;8.30;;;3.80;99.90;;;;;;5062279;28;20500;-70
2022/01/08 13:06:29;;;;;;;18.30;8.57;;;3.90;99.90;;;;;;5066889;28;20072;-69
2022/01/08 13:08:57;;;;;;;14.25;7.78;;;3.90;99.90;;;;;;5067356;28;20084;-69
2022/01/08 13:11:28;;;;;;;11.75;7.88;;;3.90;99.90;;;;;;5065289;28;20098;-69
2022/01/08 13:14:00;;;;;;;18.38;8.55;;;3.90;99.90;;;;;;5061954;28;20056;-71
2022/01/08 13:16:30;;;;;;;14.57;8.98;;;3.90;99.90;;;;;;5065678;28;20080;-70
2022/01/08 13:18:59;;;;;;;15.38;8.77;;;3.90;99.90;;;;;;5078370;28;20477;-70
2022/01/08 13:21:30;;;;;;;12.35;8.70;;;3.90;99.90;;;;;;5065576;28;20518;-70
2022/01/08 13:23:58;;;;;;;16.30;9.35;;;3.90;99.90;;;;;;5064361;28;20052;-69
2022/01/08 13:26:31;;;;;;;12.90;8.70;;;3.80;99.90;;;;;;5066728;28;20041;-70